createdAt,value
2018-04-15T00:00:01.256Z,11.87
2018-04-15T00:00:05.364Z,11.97
2018-04-15T00:00:09.684Z,11.93
2018-04-15T00:00:13.889Z,11.98
2018-04-15T00:00:18.208Z,11.97
2018-04-15T00:00:22.415Z,11.9
2018-04-15T00:00:26.623Z,11.94
2018-04-15T00:00:30.831Z,11.94
2018-04-15T00:00:35.209Z,11.93
2018-04-15T00:00:39.433Z,11.98
2018-04-15T00:00:43.747Z,11.96
2018-04-15T00:00:48.062Z,11.94
2018-04-15T00:00:52.272Z,11.94
2018-04-15T00:00:56.585Z,11.93
2018-04-15T00:01:00.799Z,11.94
2018-04-15T00:01:05.015Z,11.93
2018-04-15T00:01:09.116Z,11.93
2018-04-15T00:01:13.221Z,11.96
2018-04-15T00:01:17.426Z,11.96
2018-04-15T00:01:21.739Z,11.97
2018-04-15T00:01:25.839Z,11.96
2018-04-15T00:01:29.941Z,11.87
2018-04-15T00:01:34.257Z,11.97
2018-04-15T00:01:38.355Z,11.94
2018-04-15T00:01:42.676Z,11.88
2018-04-15T00:01:46.997Z,11.93
2018-04-15T00:01:51.202Z,11.93
2018-04-15T00:01:55.409Z,11.93
2018-04-15T00:01:59.633Z,11.88
2018-04-15T00:02:03.837Z,11.94
2018-04-15T00:02:07.835Z,11.81
2018-04-15T00:02:12.166Z,11.93
2018-04-15T00:02:16.424Z,11.85
2018-04-15T00:02:20.740Z,11.88
2018-04-15T00:02:24.948Z,11.84
2018-04-15T00:02:29.155Z,11.84
2018-04-15T00:02:33.369Z,11.9
2018-04-15T00:02:37.577Z,11.78
2018-04-15T00:02:41.903Z,11.88
2018-04-15T00:02:46.110Z,11.84
2018-04-15T00:02:50.420Z,11.81
2018-04-15T00:02:54.420Z,11.78
2018-04-15T00:02:58.632Z,11.9
2018-04-15T00:03:02.741Z,11.79
2018-04-15T00:03:06.951Z,11.77
2018-04-15T00:03:11.282Z,11.84
2018-04-15T00:03:15.608Z,11.78
2018-04-15T00:03:19.815Z,11.77
2018-04-15T00:03:23.915Z,11.84
2018-04-15T00:03:28.126Z,11.78
2018-04-15T00:03:32.242Z,11.82
2018-04-15T00:03:36.449Z,11.78
2018-04-15T00:03:40.664Z,11.84
2018-04-15T00:03:44.985Z,11.77
2018-04-15T00:03:49.089Z,11.75
2018-04-15T00:03:53.086Z,11.84
2018-04-15T00:03:57.188Z,11.81
2018-04-15T00:04:01.508Z,11.84
2018-04-15T00:04:05.823Z,11.88
2018-04-15T00:04:09.822Z,11.79
2018-04-15T00:04:13.928Z,11.78
2018-04-15T00:04:18.255Z,11.84
2018-04-15T00:04:22.358Z,11.88
2018-04-15T00:04:26.476Z,11.78
2018-04-15T00:04:30.474Z,11.81
2018-04-15T00:04:34.579Z,11.85
2018-04-15T00:04:38.586Z,11.81
2018-04-15T00:04:42.797Z,11.78
2018-04-15T00:04:47.112Z,11.7
2018-04-15T00:04:51.445Z,11.79
2018-04-15T00:04:55.334Z,11.78
2018-04-15T00:04:59.447Z,11.75
2018-04-15T00:05:03.551Z,11.72
2018-04-15T00:05:07.770Z,11.82
2018-04-15T00:05:11.981Z,11.81
2018-04-15T00:05:16.089Z,11.79
2018-04-15T00:05:20.413Z,11.79
2018-04-15T00:05:24.955Z,11.77
2018-04-15T00:05:29.271Z,11.84
2018-04-15T00:05:33.591Z,11.78
2018-04-15T00:05:37.804Z,11.72
2018-04-15T00:05:42.010Z,11.72
2018-04-15T00:05:46.324Z,11.72
2018-04-15T00:05:50.647Z,11.79
2018-04-15T00:05:54.748Z,11.81
2018-04-15T00:05:59.074Z,11.81
2018-04-15T00:06:03.181Z,11.78
2018-04-15T00:06:07.394Z,11.72
2018-04-15T00:06:11.710Z,11.79
2018-04-15T00:06:15.913Z,11.74
2018-04-15T00:06:20.343Z,11.74
2018-04-15T00:06:24.534Z,11.75
2018-04-15T00:06:28.824Z,11.72
2018-04-15T00:06:33.145Z,11.74
2018-04-15T00:06:37.365Z,11.77
2018-04-15T00:06:41.579Z,11.77
2018-04-15T00:06:45.793Z,11.78
2018-04-15T00:06:50.008Z,11.79
2018-04-15T00:06:54.232Z,11.78
2018-04-15T00:06:58.339Z,11.82
2018-04-15T00:07:02.562Z,11.81
2018-04-15T00:07:06.775Z,11.81
2018-04-15T00:07:11.093Z,11.78
2018-04-15T00:07:15.302Z,11.84
2018-04-15T00:07:19.402Z,11.78
2018-04-15T00:07:23.610Z,11.75
2018-04-15T00:07:27.714Z,11.72
2018-04-15T00:07:31.811Z,11.75
2018-04-15T00:07:36.027Z,11.78
2018-04-15T00:07:40.237Z,11.78
2018-04-15T00:07:44.546Z,11.84
2018-04-15T00:07:48.750Z,11.77
2018-04-15T00:07:53.006Z,11.75
2018-04-15T00:07:57.011Z,11.77
2018-04-15T00:08:01.336Z,11.69
2018-04-15T00:08:05.432Z,11.75
2018-04-15T00:08:09.640Z,11.77
2018-04-15T00:08:13.853Z,11.72
2018-04-15T00:08:17.952Z,11.75
2018-04-15T00:08:22.052Z,11.81
2018-04-15T00:08:26.264Z,11.72
2018-04-15T00:08:30.584Z,11.78
2018-04-15T00:08:34.904Z,11.77
2018-04-15T00:08:39.113Z,11.81
2018-04-15T00:08:43.324Z,11.75
2018-04-15T00:08:47.534Z,11.69
2018-04-15T00:08:51.742Z,11.74
2018-04-15T00:08:55.955Z,11.72
2018-04-15T00:09:00.057Z,11.78
2018-04-15T00:09:04.269Z,11.77
2018-04-15T00:09:08.378Z,11.75
2018-04-15T00:09:12.262Z,11.79
2018-04-15T00:09:16.473Z,11.77
2018-04-15T00:09:20.691Z,11.79
2018-04-15T00:09:25.008Z,11.75
2018-04-15T00:09:29.106Z,11.74
2018-04-15T00:09:33.098Z,11.78
2018-04-15T00:09:37.421Z,11.75
2018-04-15T00:09:41.636Z,11.78
2018-04-15T00:09:45.843Z,11.77
2018-04-15T00:09:50.166Z,11.78
2018-04-15T00:09:54.273Z,11.72
2018-04-15T00:09:58.596Z,11.72
2018-04-15T00:10:02.823Z,11.69
2018-04-15T00:10:06.822Z,11.75
2018-04-15T00:10:11.031Z,11.72
2018-04-15T00:10:15.139Z,11.72
2018-04-15T00:10:19.235Z,11.75
2018-04-15T00:10:23.551Z,11.74
2018-04-15T00:10:27.820Z,11.75
2018-04-15T00:10:32.137Z,11.67
2018-04-15T00:10:36.460Z,11.75
2018-04-15T00:10:40.664Z,11.74
2018-04-15T00:10:44.984Z,11.72
2018-04-15T00:10:49.196Z,11.69
2018-04-15T00:10:53.193Z,11.72
2018-04-15T00:10:57.508Z,11.74
2018-04-15T00:11:01.836Z,11.69
2018-04-15T00:11:05.933Z,11.69
2018-04-15T00:11:10.040Z,11.67
2018-04-15T00:11:14.262Z,11.69
2018-04-15T00:11:18.266Z,11.72
2018-04-15T00:11:22.367Z,11.66
2018-04-15T00:11:26.370Z,11.69
2018-04-15T00:11:30.573Z,11.69
2018-04-15T00:11:34.788Z,11.66
2018-04-15T00:11:38.785Z,11.67
2018-04-15T00:11:43.101Z,11.64
2018-04-15T00:11:47.198Z,11.69
2018-04-15T00:11:51.522Z,11.74
2018-04-15T00:11:55.836Z,11.7
2018-04-15T00:11:59.935Z,11.64
2018-04-15T00:12:03.981Z,11.69
2018-04-15T00:12:08.092Z,11.69
2018-04-15T00:12:12.397Z,11.66
2018-04-15T00:12:16.636Z,11.69
2018-04-15T00:12:20.856Z,11.64
2018-04-15T00:12:25.177Z,11.64
2018-04-15T00:12:29.389Z,11.7
2018-04-15T00:12:33.600Z,11.72
2018-04-15T00:12:37.918Z,11.7
2018-04-15T00:12:42.254Z,11.66
2018-04-15T00:12:46.465Z,11.66
2018-04-15T00:12:50.671Z,11.66
2018-04-15T00:12:54.991Z,11.72
2018-04-15T00:12:59.309Z,11.72
2018-04-15T00:13:03.411Z,11.69
2018-04-15T00:13:07.629Z,11.75
2018-04-15T00:13:11.949Z,11.72
2018-04-15T00:13:16.045Z,11.69
2018-04-15T00:13:20.246Z,11.75
2018-04-15T00:13:24.563Z,11.72
2018-04-15T00:13:28.659Z,11.67
2018-04-15T00:13:33.020Z,11.63
2018-04-15T00:13:37.337Z,11.69
2018-04-15T00:13:41.655Z,11.74
2018-04-15T00:13:45.861Z,11.63
2018-04-15T00:13:50.074Z,11.69
2018-04-15T00:13:54.285Z,11.66
2018-04-15T00:13:58.599Z,11.69
2018-04-15T00:14:02.823Z,11.69
2018-04-15T00:14:06.926Z,11.7
2018-04-15T00:14:11.392Z,11.67
2018-04-15T00:14:15.710Z,11.63
2018-04-15T00:14:19.921Z,11.62
2018-04-15T00:14:24.239Z,11.64
2018-04-15T00:14:28.470Z,11.66
2018-04-15T00:14:32.676Z,11.7
2018-04-15T00:14:36.929Z,11.67
2018-04-15T00:14:41.136Z,11.66
2018-04-15T00:14:45.359Z,11.63
2018-04-15T00:14:49.351Z,11.57
2018-04-15T00:14:53.555Z,11.62
2018-04-15T00:14:57.767Z,11.66
2018-04-15T00:15:02.128Z,11.67
2018-04-15T00:15:06.119Z,11.56
2018-04-15T00:15:10.335Z,11.64
2018-04-15T00:15:14.540Z,11.62
2018-04-15T00:15:18.531Z,11.59
2018-04-15T00:15:22.746Z,11.53
2018-04-15T00:15:26.842Z,11.57
2018-04-15T00:15:31.051Z,11.57
2018-04-15T00:15:35.316Z,11.62
2018-04-15T00:15:39.422Z,11.49
2018-04-15T00:15:43.738Z,11.6
2018-04-15T00:15:47.840Z,11.62
2018-04-15T00:15:52.157Z,11.62
2018-04-15T00:15:56.361Z,11.62
2018-04-15T00:16:00.578Z,11.48
2018-04-15T00:16:04.794Z,11.51
2018-04-15T00:16:09.008Z,11.51
2018-04-15T00:16:13.274Z,11.62
2018-04-15T00:16:17.592Z,11.6
2018-04-15T00:16:21.688Z,11.57
2018-04-15T00:16:25.780Z,11.54
2018-04-15T00:16:29.991Z,11.53
2018-04-15T00:16:34.199Z,11.45
2018-04-15T00:16:38.300Z,11.49
2018-04-15T00:16:42.626Z,11.46
2018-04-15T00:16:46.890Z,11.42
2018-04-15T00:16:51.203Z,11.48
2018-04-15T00:16:55.514Z,11.49
2018-04-15T00:16:59.622Z,11.44
2018-04-15T00:17:03.831Z,11.54
2018-04-15T00:17:07.824Z,11.48
2018-04-15T00:17:12.031Z,11.46
2018-04-15T00:17:16.352Z,11.49
2018-04-15T00:17:20.561Z,11.49
2018-04-15T00:17:24.762Z,11.53
2018-04-15T00:17:28.971Z,11.53
2018-04-15T00:17:33.286Z,11.46
2018-04-15T00:17:37.598Z,11.53
2018-04-15T00:17:41.826Z,11.51
2018-04-15T00:17:46.042Z,11.42
2018-04-15T00:17:50.249Z,11.42
2018-04-15T00:17:54.567Z,11.46
2018-04-15T00:17:58.770Z,11.46
2018-04-15T00:18:02.971Z,11.44
2018-04-15T00:18:07.068Z,11.44
2018-04-15T00:18:11.056Z,11.41
2018-04-15T00:18:15.274Z,11.45
2018-04-15T00:18:19.482Z,11.42
2018-04-15T00:18:23.833Z,11.41
2018-04-15T00:18:27.824Z,11.48
2018-04-15T00:18:32.031Z,11.39
2018-04-15T00:18:36.233Z,11.36
2018-04-15T00:18:40.442Z,11.39
2018-04-15T00:18:44.539Z,11.31
2018-04-15T00:18:48.755Z,11.42
2018-04-15T00:18:53.075Z,11.35
2018-04-15T00:18:57.282Z,11.39
2018-04-15T00:19:01.596Z,11.33
2018-04-15T00:19:05.700Z,11.38
2018-04-15T00:19:10.030Z,11.38
2018-04-15T00:19:14.238Z,11.35
2018-04-15T00:19:18.558Z,11.36
2018-04-15T00:19:22.936Z,11.41
2018-04-15T00:19:27.046Z,11.28
2018-04-15T00:19:31.365Z,11.35
2018-04-15T00:19:35.583Z,11.33
2018-04-15T00:19:39.899Z,11.31
2018-04-15T00:19:44.116Z,11.27
2018-04-15T00:19:48.324Z,11.31
2018-04-15T00:19:52.526Z,11.28
2018-04-15T00:19:56.627Z,11.33
2018-04-15T00:20:00.951Z,11.27
2018-04-15T00:20:05.056Z,11.24
2018-04-15T00:20:09.044Z,11.24
2018-04-15T00:20:13.360Z,11.31
2018-04-15T00:20:17.570Z,11.17
2018-04-15T00:20:21.789Z,11.3
2018-04-15T00:20:25.998Z,11.27
2018-04-15T00:20:30.098Z,11.23
2018-04-15T00:20:34.418Z,11.26
2018-04-15T00:20:38.731Z,11.2
2018-04-15T00:20:43.061Z,11.23
2018-04-15T00:20:47.162Z,11.19
2018-04-15T00:20:51.373Z,11.21
2018-04-15T00:20:55.686Z,11.2
2018-04-15T00:21:00.005Z,11.19
2018-04-15T00:21:04.231Z,11.19
2018-04-15T00:21:08.443Z,11.24
2018-04-15T00:21:12.652Z,11.16
2018-04-15T00:21:16.968Z,11.17
2018-04-15T00:21:21.066Z,11.2
2018-04-15T00:21:25.061Z,11.12
2018-04-15T00:21:29.267Z,11.12
2018-04-15T00:21:33.479Z,11.2
2018-04-15T00:21:37.579Z,11.12
2018-04-15T00:21:41.833Z,11.11
2018-04-15T00:21:46.153Z,11.05
2018-04-15T00:21:50.360Z,11.06
2018-04-15T00:21:54.575Z,11.01
2018-04-15T00:21:58.786Z,11.05
2018-04-15T00:22:03.456Z,11.08
2018-04-15T00:22:07.664Z,11.08
2018-04-15T00:22:11.878Z,11.03
2018-04-15T00:22:16.081Z,11.08
2018-04-15T00:22:20.397Z,11.01
2018-04-15T00:22:24.498Z,10.99
2018-04-15T00:22:28.702Z,11.09
2018-04-15T00:22:32.824Z,10.94
2018-04-15T00:22:37.033Z,10.98
2018-04-15T00:22:41.373Z,10.99
2018-04-15T00:22:45.688Z,10.95
2018-04-15T00:22:50.016Z,10.99
2018-04-15T00:22:54.343Z,11.02
2018-04-15T00:22:58.555Z,11.01
2018-04-15T00:23:02.659Z,10.94
2018-04-15T00:23:06.978Z,10.9
2018-04-15T00:23:11.298Z,10.9
2018-04-15T00:23:15.510Z,10.99
2018-04-15T00:23:19.825Z,10.91
2018-04-15T00:23:24.027Z,10.93
2018-04-15T00:23:28.133Z,10.99
2018-04-15T00:23:32.466Z,10.99
2018-04-15T00:23:36.819Z,10.93
2018-04-15T00:23:41.028Z,10.98
2018-04-15T00:23:45.348Z,10.95
2018-04-15T00:23:49.449Z,10.94
2018-04-15T00:23:53.547Z,10.94
2018-04-15T00:23:57.866Z,10.9
2018-04-15T00:24:02.071Z,10.9
2018-04-15T00:24:06.277Z,10.84
2018-04-15T00:24:10.488Z,11.02
2018-04-15T00:24:14.689Z,10.88
2018-04-15T00:24:18.893Z,10.81
2018-04-15T00:24:23.204Z,10.84
2018-04-15T00:24:27.464Z,10.84
2018-04-15T00:24:31.677Z,10.8
2018-04-15T00:24:35.990Z,10.88
2018-04-15T00:24:40.197Z,10.93
2018-04-15T00:24:44.298Z,10.87
2018-04-15T00:24:48.290Z,10.87
2018-04-15T00:24:52.500Z,10.81
2018-04-15T00:24:56.709Z,10.88
2018-04-15T00:25:01.032Z,10.94
2018-04-15T00:25:05.363Z,10.91
2018-04-15T00:25:09.467Z,10.83
2018-04-15T00:25:13.456Z,10.86
2018-04-15T00:25:17.771Z,10.86
2018-04-15T00:25:21.979Z,10.81
2018-04-15T00:25:26.336Z,10.87
2018-04-15T00:25:30.449Z,10.83
2018-04-15T00:25:34.762Z,10.84
2018-04-15T00:25:39.073Z,10.86
2018-04-15T00:25:43.288Z,10.81
2018-04-15T00:25:47.509Z,10.78
2018-04-15T00:25:51.816Z,10.8
2018-04-15T00:25:56.024Z,10.84
2018-04-15T00:26:00.231Z,10.84
2018-04-15T00:26:04.461Z,10.84
2018-04-15T00:26:08.565Z,10.83
2018-04-15T00:26:12.577Z,10.81
2018-04-15T00:26:16.570Z,10.81
2018-04-15T00:26:20.791Z,10.81
2018-04-15T00:26:25.106Z,10.84
2018-04-15T00:26:29.318Z,10.8
2018-04-15T00:26:33.533Z,10.8
2018-04-15T00:26:37.742Z,10.8
2018-04-15T00:26:41.948Z,10.78
2018-04-15T00:26:46.179Z,10.8
2018-04-15T00:26:50.502Z,10.75
2018-04-15T00:26:54.713Z,10.81
2018-04-15T00:26:59.031Z,10.69
2018-04-15T00:27:03.132Z,10.78
2018-04-15T00:27:07.452Z,10.69
2018-04-15T00:27:11.660Z,10.81
2018-04-15T00:27:15.769Z,10.73
2018-04-15T00:27:20.089Z,10.69
2018-04-15T00:27:24.199Z,10.8
2018-04-15T00:27:28.411Z,10.73
2018-04-15T00:27:32.622Z,10.72
2018-04-15T00:27:36.610Z,10.75
2018-04-15T00:27:40.824Z,10.78
2018-04-15T00:27:45.131Z,10.7
2018-04-15T00:27:49.394Z,10.76
2018-04-15T00:27:53.613Z,10.76
2018-04-15T00:27:57.841Z,10.7
2018-04-15T00:28:02.171Z,10.7
2018-04-15T00:28:06.383Z,10.7
2018-04-15T00:28:10.705Z,10.7
2018-04-15T00:28:14.954Z,10.72
2018-04-15T00:28:19.163Z,10.68
2018-04-15T00:28:23.154Z,10.7
2018-04-15T00:28:27.252Z,10.69
2018-04-15T00:28:31.571Z,10.72
2018-04-15T00:28:35.791Z,10.75
2018-04-15T00:28:40.107Z,10.72
2018-04-15T00:28:44.424Z,10.7
2018-04-15T00:28:48.636Z,10.7
2018-04-15T00:28:52.961Z,10.73
2018-04-15T00:28:57.169Z,10.68
2018-04-15T00:29:01.280Z,10.7
2018-04-15T00:29:05.548Z,10.72
2018-04-15T00:29:09.762Z,10.7
2018-04-15T00:29:14.091Z,10.6
2018-04-15T00:29:18.187Z,10.72
2018-04-15T00:29:22.504Z,10.7
2018-04-15T00:29:26.492Z,10.66
2018-04-15T00:29:30.711Z,10.62
2018-04-15T00:29:34.821Z,10.65
2018-04-15T00:29:39.039Z,10.69
2018-04-15T00:29:43.248Z,10.58
2018-04-15T00:29:47.563Z,10.6
2018-04-15T00:29:51.771Z,10.69
2018-04-15T00:29:55.869Z,10.68
2018-04-15T00:30:00.080Z,10.62
2018-04-15T00:30:04.299Z,10.72
2018-04-15T00:30:08.403Z,10.63
2018-04-15T00:30:12.406Z,10.63
2018-04-15T00:30:16.509Z,10.63
2018-04-15T00:30:20.502Z,10.58
2018-04-15T00:30:24.717Z,10.58
2018-04-15T00:30:28.922Z,10.58
2018-04-15T00:30:33.134Z,10.63
2018-04-15T00:30:37.343Z,10.57
2018-04-15T00:30:41.544Z,10.57
2018-04-15T00:30:45.751Z,10.55
2018-04-15T00:30:49.964Z,10.6
2018-04-15T00:30:54.289Z,10.63
2018-04-15T00:30:58.507Z,10.69
2018-04-15T00:31:02.501Z,10.58
2018-04-15T00:31:06.503Z,10.58
2018-04-15T00:31:10.717Z,10.66
2018-04-15T00:31:15.034Z,10.65
2018-04-15T00:31:19.136Z,10.58
2018-04-15T00:31:23.241Z,10.55
2018-04-15T00:31:27.344Z,10.6
2018-04-15T00:31:31.456Z,10.6
2018-04-15T00:31:35.771Z,10.54
2018-04-15T00:31:39.982Z,10.62
2018-04-15T00:31:44.197Z,10.6
2018-04-15T00:31:48.509Z,10.6
2018-04-15T00:31:52.611Z,10.6
2018-04-15T00:31:56.928Z,10.6
2018-04-15T00:32:01.143Z,10.6
2018-04-15T00:32:05.377Z,10.57
2018-04-15T00:32:09.699Z,10.54
2018-04-15T00:32:13.807Z,10.6
2018-04-15T00:32:18.135Z,10.49
2018-04-15T00:32:22.238Z,10.58
2018-04-15T00:32:26.548Z,10.57
2018-04-15T00:32:30.859Z,10.46
2018-04-15T00:32:35.071Z,10.51
2018-04-15T00:32:39.383Z,10.51
2018-04-15T00:32:43.595Z,10.55
2018-04-15T00:32:47.811Z,10.52
2018-04-15T00:32:52.025Z,10.58
2018-04-15T00:32:56.249Z,10.6
2018-04-15T00:33:00.565Z,10.49
2018-04-15T00:33:04.761Z,10.54
2018-04-15T00:33:08.980Z,10.54
2018-04-15T00:33:13.195Z,10.58
2018-04-15T00:33:17.517Z,10.54
2018-04-15T00:33:21.838Z,10.55
2018-04-15T00:33:25.945Z,10.57
2018-04-15T00:33:30.157Z,10.46
2018-04-15T00:33:34.480Z,10.57
2018-04-15T00:33:38.581Z,10.49
2018-04-15T00:33:42.893Z,10.51
2018-04-15T00:33:46.881Z,10.54
2018-04-15T00:33:51.086Z,10.51
2018-04-15T00:33:55.300Z,10.57
2018-04-15T00:33:59.613Z,10.51
2018-04-15T00:34:03.823Z,10.52
2018-04-15T00:34:07.927Z,10.55
2018-04-15T00:34:12.134Z,10.51
2018-04-15T00:34:16.233Z,10.54
2018-04-15T00:34:20.544Z,10.46
2018-04-15T00:34:24.537Z,10.49
2018-04-15T00:34:28.524Z,10.57
2018-04-15T00:34:32.734Z,10.51
2018-04-15T00:34:37.059Z,10.54
2018-04-15T00:34:41.047Z,10.51
2018-04-15T00:34:45.363Z,10.52
2018-04-15T00:34:49.463Z,10.49
2018-04-15T00:34:53.676Z,10.54
2018-04-15T00:34:57.993Z,10.43
2018-04-15T00:35:02.461Z,10.51
2018-04-15T00:35:06.450Z,10.46
2018-04-15T00:35:10.669Z,10.46
2018-04-15T00:35:14.993Z,10.52
2018-04-15T00:35:19.199Z,10.49
2018-04-15T00:35:23.192Z,10.51
2018-04-15T00:35:27.398Z,10.52
2018-04-15T00:35:31.713Z,10.44
2018-04-15T00:35:35.814Z,10.46
2018-04-15T00:35:39.917Z,10.55
2018-04-15T00:35:44.126Z,10.57
2018-04-15T00:35:48.439Z,10.43
2018-04-15T00:35:52.753Z,10.54
2018-04-15T00:35:56.958Z,10.47
2018-04-15T00:36:01.276Z,10.54
2018-04-15T00:36:05.542Z,10.51
2018-04-15T00:36:09.757Z,10.47
2018-04-15T00:36:13.965Z,10.54
2018-04-15T00:36:18.171Z,10.54
2018-04-15T00:36:22.375Z,10.54
2018-04-15T00:36:26.474Z,10.51
2018-04-15T00:36:30.568Z,10.43
2018-04-15T00:36:34.674Z,10.51
2018-04-15T00:36:38.999Z,10.51
2018-04-15T00:36:43.309Z,10.43
2018-04-15T00:36:47.516Z,10.54
2018-04-15T00:36:51.839Z,10.58
2018-04-15T00:36:56.050Z,10.54
2018-04-15T00:37:00.374Z,10.49
2018-04-15T00:37:04.594Z,10.51
2018-04-15T00:37:08.589Z,10.46
2018-04-15T00:37:12.690Z,10.46
2018-04-15T00:37:16.892Z,10.42
2018-04-15T00:37:21.212Z,10.47
2018-04-15T00:37:25.307Z,10.54
2018-04-15T00:37:29.623Z,10.47
2018-04-15T00:37:33.618Z,10.54
2018-04-15T00:37:37.736Z,10.43
2018-04-15T00:37:41.975Z,10.47
2018-04-15T00:37:46.188Z,10.51
2018-04-15T00:37:50.295Z,10.52
2018-04-15T00:37:54.508Z,10.54
2018-04-15T00:37:58.832Z,10.51
2018-04-15T00:38:03.244Z,10.49
2018-04-15T00:38:07.498Z,10.54
2018-04-15T00:38:11.703Z,10.51
2018-04-15T00:38:16.019Z,10.49
2018-04-15T00:38:20.339Z,10.57
2018-04-15T00:38:24.446Z,10.55
2018-04-15T00:38:28.547Z,10.54
2018-04-15T00:38:32.858Z,10.55
2018-04-15T00:38:37.074Z,10.49
2018-04-15T00:38:41.173Z,10.6
2018-04-15T00:38:45.383Z,10.51
2018-04-15T00:38:49.701Z,10.54
2018-04-15T00:38:54.012Z,10.51
2018-04-15T00:38:58.116Z,10.55
2018-04-15T00:39:02.433Z,10.52
2018-04-15T00:39:06.652Z,10.54
2018-04-15T00:39:10.875Z,10.55
2018-04-15T00:39:15.081Z,10.65
2018-04-15T00:39:19.181Z,10.57
2018-04-15T00:39:23.494Z,10.65
2018-04-15T00:39:27.376Z,10.63
2018-04-15T00:39:31.695Z,10.6
2018-04-15T00:39:35.900Z,10.58
2018-04-15T00:39:40.118Z,10.65
2018-04-15T00:39:44.330Z,10.57
2018-04-15T00:39:48.551Z,10.65
2018-04-15T00:39:52.911Z,10.62
2018-04-15T00:39:57.018Z,10.57
2018-04-15T00:40:01.223Z,10.66
2018-04-15T00:40:05.429Z,10.57
2018-04-15T00:40:09.644Z,10.55
2018-04-15T00:40:13.961Z,10.6
2018-04-15T00:40:18.211Z,10.52
2018-04-15T00:40:22.428Z,10.6
2018-04-15T00:40:26.312Z,10.57
2018-04-15T00:40:30.627Z,10.54
2018-04-15T00:40:34.831Z,10.65
2018-04-15T00:40:39.147Z,10.68
2018-04-15T00:40:43.243Z,10.63
2018-04-15T00:40:47.559Z,10.63
2018-04-15T00:40:51.776Z,10.66
2018-04-15T00:40:56.102Z,10.66
2018-04-15T00:41:00.201Z,10.63
2018-04-15T00:41:04.423Z,10.68
2018-04-15T00:41:08.631Z,10.65
2018-04-15T00:41:12.946Z,10.7
2018-04-15T00:41:17.157Z,10.7
2018-04-15T00:41:21.261Z,10.68
2018-04-15T00:41:25.367Z,10.7
2018-04-15T00:41:29.254Z,10.7
2018-04-15T00:41:33.462Z,10.68
2018-04-15T00:41:37.672Z,10.68
2018-04-15T00:41:41.990Z,10.7
2018-04-15T00:41:46.202Z,10.68
2018-04-15T00:41:50.526Z,10.69
2018-04-15T00:41:54.630Z,10.7
2018-04-15T00:41:58.949Z,10.7
2018-04-15T00:42:03.167Z,10.7
2018-04-15T00:42:07.275Z,10.7
2018-04-15T00:42:11.595Z,10.68
2018-04-15T00:42:15.920Z,10.76
2018-04-15T00:42:20.238Z,10.75
2018-04-15T00:42:24.343Z,10.7
2018-04-15T00:42:28.442Z,10.72
2018-04-15T00:42:32.645Z,10.72
2018-04-15T00:42:36.962Z,10.72
2018-04-15T00:42:41.060Z,10.8
2018-04-15T00:42:45.270Z,10.69
2018-04-15T00:42:49.284Z,10.73
2018-04-15T00:42:53.601Z,10.78
2018-04-15T00:42:57.826Z,10.78
2018-04-15T00:43:02.151Z,10.78
2018-04-15T00:43:06.256Z,10.75
2018-04-15T00:43:10.468Z,10.81
2018-04-15T00:43:14.671Z,10.7
2018-04-15T00:43:18.783Z,10.78
2018-04-15T00:43:22.993Z,10.73
2018-04-15T00:43:27.199Z,10.73
2018-04-15T00:43:31.416Z,10.72
2018-04-15T00:43:35.735Z,10.73
2018-04-15T00:43:40.052Z,10.7
2018-04-15T00:43:44.363Z,10.75
2018-04-15T00:43:48.473Z,10.73
2018-04-15T00:43:52.678Z,10.76
2018-04-15T00:43:56.775Z,10.72
2018-04-15T00:44:00.982Z,10.78
2018-04-15T00:44:04.869Z,10.73
2018-04-15T00:44:09.079Z,10.8
2018-04-15T00:44:13.288Z,10.78
2018-04-15T00:44:17.383Z,10.75
2018-04-15T00:44:21.481Z,10.84
2018-04-15T00:44:25.692Z,10.78
2018-04-15T00:44:29.908Z,10.84
2018-04-15T00:44:33.901Z,10.83
2018-04-15T00:44:37.900Z,10.8
2018-04-15T00:44:42.215Z,10.8
2018-04-15T00:44:46.550Z,10.83
2018-04-15T00:44:50.872Z,10.8
2018-04-15T00:44:55.190Z,10.75
2018-04-15T00:44:59.400Z,10.8
2018-04-15T00:45:03.395Z,10.87
2018-04-15T00:45:07.393Z,10.76
2018-04-15T00:45:11.606Z,10.81
2018-04-15T00:45:15.975Z,10.81
2018-04-15T00:45:20.288Z,10.8
2018-04-15T00:45:24.495Z,10.83
2018-04-15T00:45:28.703Z,10.8
2018-04-15T00:45:32.701Z,10.83
2018-04-15T00:45:36.910Z,10.84
2018-04-15T00:45:41.224Z,10.8
2018-04-15T00:45:45.427Z,10.8
2018-04-15T00:45:49.532Z,10.83
2018-04-15T00:45:53.852Z,10.87
2018-04-15T00:45:57.954Z,10.87
2018-04-15T00:46:02.166Z,10.84
2018-04-15T00:46:06.161Z,10.84
2018-04-15T00:46:10.477Z,10.81
2018-04-15T00:46:14.577Z,10.86
2018-04-15T00:46:18.794Z,10.95
2018-04-15T00:46:22.894Z,10.88
2018-04-15T00:46:27.105Z,10.88
2018-04-15T00:46:31.204Z,10.86
2018-04-15T00:46:35.303Z,10.84
2018-04-15T00:46:39.557Z,10.86
2018-04-15T00:46:43.762Z,10.83
2018-04-15T00:46:47.755Z,10.84
2018-04-15T00:46:51.961Z,10.86
2018-04-15T00:46:56.164Z,10.84
2018-04-15T00:47:00.377Z,10.88
2018-04-15T00:47:04.476Z,10.95
2018-04-15T00:47:08.683Z,10.84
2018-04-15T00:47:12.785Z,10.86
2018-04-15T00:47:16.993Z,10.94
2018-04-15T00:47:21.311Z,10.93
2018-04-15T00:47:25.513Z,10.9
2018-04-15T00:47:29.830Z,10.87
2018-04-15T00:47:34.037Z,10.93
2018-04-15T00:47:38.250Z,10.87
2018-04-15T00:47:42.243Z,10.99
2018-04-15T00:47:46.463Z,10.84
2018-04-15T00:47:50.680Z,10.87
2018-04-15T00:47:54.996Z,10.87
2018-04-15T00:47:59.316Z,10.87
2018-04-15T00:48:03.419Z,10.87
2018-04-15T00:48:07.739Z,10.98
2018-04-15T00:48:11.948Z,10.81
2018-04-15T00:48:16.267Z,10.87
2018-04-15T00:48:20.483Z,10.86
2018-04-15T00:48:24.783Z,10.9
2018-04-15T00:48:29.257Z,10.87
2018-04-15T00:48:33.612Z,10.99
2018-04-15T00:48:37.823Z,10.86
2018-04-15T00:48:42.180Z,10.93
2018-04-15T00:48:46.499Z,10.93
2018-04-15T00:48:50.600Z,10.81
2018-04-15T00:48:54.803Z,10.94
2018-04-15T00:48:59.013Z,10.88
2018-04-15T00:49:03.006Z,10.84
2018-04-15T00:49:07.002Z,10.98
2018-04-15T00:49:11.211Z,10.84
2018-04-15T00:49:15.529Z,10.78
2018-04-15T00:49:19.630Z,10.86
2018-04-15T00:49:23.846Z,10.88
2018-04-15T00:49:27.997Z,10.83
2018-04-15T00:49:32.314Z,10.95
2018-04-15T00:49:36.632Z,10.88
2018-04-15T00:49:40.993Z,10.83
2018-04-15T00:49:45.092Z,10.84
2018-04-15T00:49:49.199Z,10.9
2018-04-15T00:49:53.414Z,10.86
2018-04-15T00:49:57.524Z,10.91
2018-04-15T00:50:01.737Z,10.93
2018-04-15T00:50:05.846Z,10.9
2018-04-15T00:50:09.945Z,10.9
2018-04-15T00:50:14.165Z,10.86
2018-04-15T00:50:18.377Z,10.88
2018-04-15T00:50:22.694Z,10.9
2018-04-15T00:50:26.794Z,10.94
2018-04-15T00:50:31.120Z,10.84
2018-04-15T00:50:35.444Z,10.83
2018-04-15T00:50:39.441Z,10.84
2018-04-15T00:50:43.650Z,10.91
2018-04-15T00:50:47.748Z,10.84
2018-04-15T00:50:51.958Z,10.94
2018-04-15T00:50:56.164Z,10.88
2018-04-15T00:51:00.267Z,10.98
2018-04-15T00:51:04.268Z,10.91
2018-04-15T00:51:08.258Z,10.98
2018-04-15T00:51:12.480Z,10.84
2018-04-15T00:51:16.797Z,10.93
2018-04-15T00:51:20.960Z,10.83
2018-04-15T00:51:25.282Z,10.88
2018-04-15T00:51:29.489Z,10.91
2018-04-15T00:51:33.490Z,10.91
2018-04-15T00:51:37.702Z,10.86
2018-04-15T00:51:42.012Z,10.84
2018-04-15T00:51:46.371Z,10.83
2018-04-15T00:51:50.581Z,10.91
2018-04-15T00:51:54.790Z,10.78
2018-04-15T00:51:59.095Z,10.87
2018-04-15T00:52:03.201Z,10.86
2018-04-15T00:52:07.195Z,10.87
2018-04-15T00:52:11.301Z,10.78
2018-04-15T00:52:15.627Z,10.86
2018-04-15T00:52:19.945Z,10.91
2018-04-15T00:52:24.050Z,10.91
2018-04-15T00:52:28.278Z,10.9
2018-04-15T00:52:32.271Z,11.01
2018-04-15T00:52:36.481Z,10.9
2018-04-15T00:52:40.803Z,10.86
2018-04-15T00:52:44.903Z,10.86
2018-04-15T00:52:49.217Z,10.75
2018-04-15T00:52:53.419Z,10.87
2018-04-15T00:52:57.737Z,10.87
2018-04-15T00:53:01.964Z,10.88
2018-04-15T00:53:06.294Z,10.83
2018-04-15T00:53:10.390Z,10.95
2018-04-15T00:53:14.596Z,10.87
2018-04-15T00:53:18.844Z,10.95
2018-04-15T00:53:23.055Z,10.84
2018-04-15T00:53:27.262Z,10.94
2018-04-15T00:53:31.360Z,10.95
2018-04-15T00:53:35.565Z,10.94
2018-04-15T00:53:39.768Z,10.87
2018-04-15T00:53:43.868Z,10.94
2018-04-15T00:53:48.177Z,10.91
2018-04-15T00:53:52.281Z,10.84
2018-04-15T00:53:56.592Z,10.95
2018-04-15T00:54:00.801Z,10.87
2018-04-15T00:54:04.942Z,10.83
2018-04-15T00:54:09.043Z,10.75
2018-04-15T00:54:13.253Z,10.83
2018-04-15T00:54:17.572Z,10.99
2018-04-15T00:54:21.627Z,10.9